sensor_id;sensor_type;location;lat;lon;timestamp;P1;durP1;ratioP1;P2;durP2;ratioP2
11008;SDS011;5557;51.670;7.788;2023-09-08T00:00:00;15.10;;;10.93;;
11008;SDS011;5557;51.670;7.788;2023-09-08T00:02:27;12.50;;;10.03;;
11008;SDS011;5557;51.670;7.788;2023-09-08T00:04:56;11.47;;;8.77;;
11008;SDS011;5557;51.670;7.788;2023-09-08T00:07:23;10.53;;;8.93;;
11008;SDS011;5557;51.670;7.788;2023-09-08T00:09:53;13.13;;;9.20;;
11008;SDS011;5557;51.670;7.788;2023-09-08T00:12:20;12.07;;;9.50;;
11008;SDS011;5557;51.670;7.788;2023-09-08T00:14:47;12.43;;;11.23;;
11008;SDS011;5557;51.670;7.788;2023-09-08T00:17:14;10.80;;;9.30;;
11008;SDS011;5557;51.670;7.788;2023-09-08T00:19:42;11.07;;;9.40;;
11008;SDS011;5557;51.670;7.788;2023-09-08T00:22:09;12.43;;;9.40;;
11008;SDS011;5557;51.670;7.788;2023-09-08T00:24:36;16.47;;;10.90;;
11008;SDS011;5557;51.670;7.788;2023-09-08T00:27:04;15.20;;;10.07;;
11008;SDS011;5557;51.670;7.788;2023-09-08T00:29:31;12.33;;;11.23;;
11008;SDS011;5557;51.670;7.788;2023-09-08T00:31:58;14.73;;;11.37;;
11008;SDS011;5557;51.670;7.788;2023-09-08T00:34:26;16.83;;;11.33;;
11008;SDS011;5557;51.670;7.788;2023-09-08T00:36:53;27.97;;;13.60;;
11008;SDS011;5557;51.670;7.788;2023-09-08T00:39:20;31.40;;;23.00;;
11008;SDS011;5557;51.670;7.788;2023-09-08T00:41:48;22.33;;;19.97;;
11008;SDS011;5557;51.670;7.788;2023-09-08T00:44:15;22.37;;;19.97;;
11008;SDS011;5557;51.670;7.788;2023-09-08T00:46:42;25.03;;;15.10;;
11008;SDS011;5557;51.670;7.788;2023-09-08T00:49:11;17.80;;;12.23;;
11008;SDS011;5557;51.670;7.788;2023-09-08T00:51:38;14.93;;;10.80;;
11008;SDS011;5557;51.670;7.788;2023-09-08T00:54:06;22.53;;;16.53;;
11008;SDS011;5557;51.670;7.788;2023-09-08T00:56:34;15.30;;;12.47;;
11008;SDS011;5557;51.670;7.788;2023-09-08T00:59:03;15.57;;;12.90;;
11008;SDS011;5557;51.670;7.788;2023-09-08T01:01:31;17.70;;;11.73;;
11008;SDS011;5557;51.670;7.788;2023-09-08T01:04:05;12.10;;;10.87;;
11008;SDS011;5557;51.670;7.788;2023-09-08T01:06:32;20.87;;;11.43;;
11008;SDS011;5557;51.670;7.788;2023-09-08T01:09:00;13.53;;;11.60;;
11008;SDS011;5557;51.670;7.788;2023-09-08T01:11:27;13.23;;;11.63;;
11008;SDS011;5557;51.670;7.788;2023-09-08T01:13:57;13.80;;;11.23;;
11008;SDS011;5557;51.670;7.788;2023-09-08T01:16:24;15.00;;;11.97;;
11008;SDS011;5557;51.670;7.788;2023-09-08T01:18:53;19.07;;;10.90;;
11008;SDS011;5557;51.670;7.788;2023-09-08T01:24:38;16.27;;;10.73;;
11008;SDS011;5557;51.670;7.788;2023-09-08T01:27:31;13.77;;;11.03;;
11008;SDS011;5557;51.670;7.788;2023-09-08T01:30:02;13.03;;;11.23;;
11008;SDS011;5557;51.670;7.788;2023-09-08T01:32:32;11.67;;;10.47;;
11008;SDS011;5557;51.670;7.788;2023-09-08T01:35:00;15.17;;;11.23;;
11008;SDS011;5557;51.670;7.788;2023-09-08T01:37:28;12.57;;;11.20;;
11008;SDS011;5557;51.670;7.788;2023-09-08T01:39:56;13.43;;;10.97;;
11008;SDS011;5557;51.670;7.788;2023-09-08T01:42:23;12.60;;;10.20;;
11008;SDS011;5557;51.670;7.788;2023-09-08T01:44:51;28.70;;;19.53;;
11008;SDS011;5557;51.670;7.788;2023-09-08T01:47:23;26.27;;;23.47;;
11008;SDS011;5557;51.670;7.788;2023-09-08T01:49:52;32.97;;;26.70;;
11008;SDS011;5557;51.670;7.788;2023-09-08T01:52:19;18.43;;;15.37;;
11008;SDS011;5557;51.670;7.788;2023-09-08T01:54:46;19.67;;;15.40;;
11008;SDS011;5557;51.670;7.788;2023-09-08T01:57:14;25.73;;;13.53;;
11008;SDS011;5557;51.670;7.788;2023-09-08T01:59:42;13.80;;;11.40;;
11008;SDS011;5557;51.670;7.788;2023-09-08T02:02:11;18.90;;;11.73;;
11008;SDS011;5557;51.670;7.788;2023-09-08T02:04:38;18.10;;;11.30;;
11008;SDS011;5557;51.670;7.788;2023-09-08T02:07:05;14.40;;;12.97;;
11008;SDS011;5557;51.670;7.788;2023-09-08T02:09:33;17.37;;;11.47;;
11008;SDS011;5557;51.670;7.788;2023-09-08T02:12:03;16.90;;;12.10;;
11008;SDS011;5557;51.670;7.788;2023-09-08T02:14:30;15.73;;;11.80;;
11008;SDS011;5557;51.670;7.788;2023-09-08T02:16:57;17.33;;;12.57;;
11008;SDS011;5557;51.670;7.788;2023-09-08T02:19:24;16.90;;;13.20;;
11008;SDS011;5557;51.670;7.788;2023-09-08T02:21:52;15.30;;;12.50;;
11008;SDS011;5557;51.670;7.788;2023-09-08T02:24:20;16.80;;;13.13;;
11008;SDS011;5557;51.670;7.788;2023-09-08T02:26:47;14.33;;;12.93;;
11008;SDS011;5557;51.670;7.788;2023-09-08T02:29:14;15.07;;;13.20;;
11008;SDS011;5557;51.670;7.788;2023-09-08T02:31:41;21.73;;;13.10;;
11008;SDS011;5557;51.670;7.788;2023-09-08T02:34:08;19.00;;;13.13;;
11008;SDS011;5557;51.670;7.788;2023-09-08T02:36:36;17.10;;;14.23;;
11008;SDS011;5557;51.670;7.788;2023-09-08T02:39:04;29.43;;;12.90;;
11008;SDS011;5557;51.670;7.788;2023-09-08T02:41:31;15.27;;;13.80;;
11008;SDS011;5557;51.670;7.788;2023-09-08T02:43:58;19.03;;;14.40;;
11008;SDS011;5557;51.670;7.788;2023-09-08T02:46:26;16.53;;;12.67;;
11008;SDS011;5557;51.670;7.788;2023-09-08T02:48:53;19.80;;;12.50;;
11008;SDS011;5557;51.670;7.788;2023-09-08T02:51:20;14.90;;;13.30;;
11008;SDS011;5557;51.670;7.788;2023-09-08T02:53:47;17.27;;;12.60;;
11008;SDS011;5557;51.670;7.788;2023-09-08T02:56:14;21.90;;;14.90;;
11008;SDS011;5557;51.670;7.788;2023-09-08T02:58:41;16.13;;;13.07;;
11008;SDS011;5557;51.670;7.788;2023-09-08T03:01:17;18.23;;;13.30;;
11008;SDS011;5557;51.670;7.788;2023-09-08T03:03:47;19.87;;;14.87;;
11008;SDS011;5557;51.670;7.788;2023-09-08T03:06:17;19.60;;;15.30;;
11008;SDS011;5557;51.670;7.788;2023-09-08T03:08:45;16.60;;;14.73;;
11008;SDS011;5557;51.670;7.788;2023-09-08T03:11:12;15.20;;;13.60;;
11008;SDS011;5557;51.670;7.788;2023-09-08T03:13:39;19.50;;;14.53;;
11008;SDS011;5557;51.670;7.788;2023-09-08T03:16:07;15.27;;;13.67;;
11008;SDS011;5557;51.670;7.788;2023-09-08T03:18:35;20.83;;;13.30;;
11008;SDS011;5557;51.670;7.788;2023-09-08T03:21:04;18.07;;;13.87;;
11008;SDS011;5557;51.670;7.788;2023-09-08T03:23:42;16.27;;;13.13;;
11008;SDS011;5557;51.670;7.788;2023-09-08T03:26:09;19.83;;;14.73;;
11008;SDS011;5557;51.670;7.788;2023-09-08T03:28:37;18.00;;;14.00;;
11008;SDS011;5557;51.670;7.788;2023-09-08T03:31:05;17.27;;;14.23;;
11008;SDS011;5557;51.670;7.788;2023-09-08T03:33:32;15.90;;;13.83;;
11008;SDS011;5557;51.670;7.788;2023-09-08T03:36:00;17.37;;;15.07;;
11008;SDS011;5557;51.670;7.788;2023-09-08T03:38:28;17.60;;;13.20;;
11008;SDS011;5557;51.670;7.788;2023-09-08T03:40:56;23.60;;;15.20;;
11008;SDS011;5557;51.670;7.788;2023-09-08T03:43:23;15.20;;;13.53;;
11008;SDS011;5557;51.670;7.788;2023-09-08T03:45:58;15.20;;;12.47;;
11008;SDS011;5557;51.670;7.788;2023-09-08T03:48:25;18.20;;;14.00;;
11008;SDS011;5557;51.670;7.788;2023-09-08T03:50:52;15.27;;;12.80;;
11008;SDS011;5557;51.670;7.788;2023-09-08T03:53:19;14.47;;;12.53;;
11008;SDS011;5557;51.670;7.788;2023-09-08T03:55:48;17.33;;;13.30;;
11008;SDS011;5557;51.670;7.788;2023-09-08T03:58:15;14.70;;;12.73;;
11008;SDS011;5557;51.670;7.788;2023-09-08T04:00:42;13.77;;;12.30;;
11008;SDS011;5557;51.670;7.788;2023-09-08T04:03:11;24.73;;;13.83;;
11008;SDS011;5557;51.670;7.788;2023-09-08T04:05:38;15.33;;;13.80;;
11008;SDS011;5557;51.670;7.788;2023-09-08T04:08:06;14.63;;;12.63;;
11008;SDS011;5557;51.670;7.788;2023-09-08T04:10:33;13.80;;;12.40;;
11008;SDS011;5557;51.670;7.788;2023-09-08T04:13:00;15.83;;;13.10;;
11008;SDS011;5557;51.670;7.788;2023-09-08T04:15:27;15.60;;;13.13;;
11008;SDS011;5557;51.670;7.788;2023-09-08T04:17:54;13.70;;;12.30;;
11008;SDS011;5557;51.670;7.788;2023-09-08T04:20:26;17.10;;;13.83;;
11008;SDS011;5557;51.670;7.788;2023-09-08T04:22:56;20.07;;;13.40;;
11008;SDS011;5557;51.670;7.788;2023-09-08T04:25:23;15.07;;;13.30;;
11008;SDS011;5557;51.670;7.788;2023-09-08T04:27:52;16.47;;;14.37;;
11008;SDS011;5557;51.670;7.788;2023-09-08T04:30:19;17.10;;;13.47;;
11008;SDS011;5557;51.670;7.788;2023-09-08T04:32:48;17.17;;;14.17;;
11008;SDS011;5557;51.670;7.788;2023-09-08T04:35:18;15.33;;;13.50;;
11008;SDS011;5557;51.670;7.788;2023-09-08T04:37:45;18.73;;;13.90;;
11008;SDS011;5557;51.670;7.788;2023-09-08T04:40:12;19.37;;;14.00;;
11008;SDS011;5557;51.670;7.788;2023-09-08T04:42:39;22.47;;;13.17;;
11008;SDS011;5557;51.670;7.788;2023-09-08T04:45:06;18.33;;;14.40;;
11008;SDS011;5557;51.670;7.788;2023-09-08T04:47:33;14.90;;;13.30;;
11008;SDS011;5557;51.670;7.788;2023-09-08T04:50:00;17.47;;;14.10;;
11008;SDS011;5557;51.670;7.788;2023-09-08T04:52:28;18.53;;;13.73;;
11008;SDS011;5557;51.670;7.788;2023-09-08T04:54:55;16.20;;;14.60;;
11008;SDS011;5557;51.670;7.788;2023-09-08T04:57:23;19.40;;;15.13;;
11008;SDS011;5557;51.670;7.788;2023-09-08T04:59:50;20.13;;;14.90;;
11008;SDS011;5557;51.670;7.788;2023-09-08T05:02:17;16.13;;;14.40;;
11008;SDS011;5557;51.670;7.788;2023-09-08T05:04:46;17.30;;;14.70;;
11008;SDS011;5557;51.670;7.788;2023-09-08T05:07:13;18.30;;;15.50;;
11008;SDS011;5557;51.670;7.788;2023-09-08T05:09:40;16.20;;;14.57;;
11008;SDS011;5557;51.670;7.788;2023-09-08T05:12:07;25.47;;;13.73;;
11008;SDS011;5557;51.670;7.788;2023-09-08T05:14:34;22.53;;;13.53;;
11008;SDS011;5557;51.670;7.788;2023-09-08T05:17:01;15.30;;;13.37;;
11008;SDS011;5557;51.670;7.788;2023-09-08T05:19:29;14.13;;;12.63;;
11008;SDS011;5557;51.670;7.788;2023-09-08T05:21:56;22.93;;;12.00;;
11008;SDS011;5557;51.670;7.788;2023-09-08T05:24:23;19.10;;;11.50;;
11008;SDS011;5557;51.670;7.788;2023-09-08T05:26:52;11.20;;;10.10;;
11008;SDS011;5557;51.670;7.788;2023-09-08T05:29:20;12.87;;;11.50;;
11008;SDS011;5557;51.670;7.788;2023-09-08T05:31:47;16.00;;;10.87;;
11008;SDS011;5557;51.670;7.788;2023-09-08T05:34:14;13.80;;;11.57;;
11008;SDS011;5557;51.670;7.788;2023-09-08T05:36:41;14.13;;;10.63;;
11008;SDS011;5557;51.670;7.788;2023-09-08T05:39:10;21.80;;;10.80;;
11008;SDS011;5557;51.670;7.788;2023-09-08T05:41:41;11.40;;;9.17;;
11008;SDS011;5557;51.670;7.788;2023-09-08T05:44:08;12.10;;;9.67;;
11008;SDS011;5557;51.670;7.788;2023-09-08T05:46:36;10.90;;;9.33;;
11008;SDS011;5557;51.670;7.788;2023-09-08T05:49:04;13.40;;;9.40;;
11008;SDS011;5557;51.670;7.788;2023-09-08T05:51:31;12.80;;;10.80;;
11008;SDS011;5557;51.670;7.788;2023-09-08T05:53:58;10.40;;;9.27;;
11008;SDS011;5557;51.670;7.788;2023-09-08T05:56:29;21.10;;;8.90;;
11008;SDS011;5557;51.670;7.788;2023-09-08T05:58:57;8.20;;;7.43;;
11008;SDS011;5557;51.670;7.788;2023-09-08T06:01:24;8.53;;;7.77;;
11008;SDS011;5557;51.670;7.788;2023-09-08T06:03:53;15.70;;;7.87;;
11008;SDS011;5557;51.670;7.788;2023-09-08T06:06:21;8.43;;;7.27;;
11008;SDS011;5557;51.670;7.788;2023-09-08T06:08:48;20.73;;;8.07;;
11008;SDS011;5557;51.670;7.788;2023-09-08T06:11:15;12.20;;;7.97;;
11008;SDS011;5557;51.670;7.788;2023-09-08T06:13:43;11.63;;;7.97;;
11008;SDS011;5557;51.670;7.788;2023-09-08T06:16:10;21.03;;;7.37;;
11008;SDS011;5557;51.670;7.788;2023-09-08T06:18:39;14.30;;;8.10;;
11008;SDS011;5557;51.670;7.788;2023-09-08T06:21:06;14.03;;;7.23;;
11008;SDS011;5557;51.670;7.788;2023-09-08T06:23:34;9.00;;;7.10;;
11008;SDS011;5557;51.670;7.788;2023-09-08T06:26:03;27.17;;;8.07;;
11008;SDS011;5557;51.670;7.788;2023-09-08T06:28:31;7.93;;;6.97;;
11008;SDS011;5557;51.670;7.788;2023-09-08T06:30:59;8.50;;;7.10;;
11008;SDS011;5557;51.670;7.788;2023-09-08T06:33:26;13.77;;;6.20;;
11008;SDS011;5557;51.670;7.788;2023-09-08T06:35:53;11.00;;;6.97;;
11008;SDS011;5557;51.670;7.788;2023-09-08T06:38:23;8.73;;;6.53;;
11008;SDS011;5557;51.670;7.788;2023-09-08T06:40:50;8.50;;;6.43;;
11008;SDS011;5557;51.670;7.788;2023-09-08T06:43:19;13.93;;;7.07;;
11008;SDS011;5557;51.670;7.788;2023-09-08T06:45:47;7.87;;;6.93;;
11008;SDS011;5557;51.670;7.788;2023-09-08T06:48:15;12.60;;;5.97;;
11008;SDS011;5557;51.670;7.788;2023-09-08T06:50:43;12.13;;;5.80;;
11008;SDS011;5557;51.670;7.788;2023-09-08T06:53:10;11.97;;;6.03;;
11008;SDS011;5557;51.670;7.788;2023-09-08T06:55:39;15.97;;;6.27;;
11008;SDS011;5557;51.670;7.788;2023-09-08T06:58:10;6.00;;;5.50;;
11008;SDS011;5557;51.670;7.788;2023-09-08T07:00:38;5.33;;;5.00;;
11008;SDS011;5557;51.670;7.788;2023-09-08T07:03:06;13.73;;;6.33;;
11008;SDS011;5557;51.670;7.788;2023-09-08T07:05:35;9.30;;;5.60;;
11008;SDS011;5557;51.670;7.788;2023-09-08T07:08:03;7.97;;;4.43;;
11008;SDS011;5557;51.670;7.788;2023-09-08T07:10:32;17.55;;;4.90;;
11008;SDS011;5557;51.670;7.788;2023-09-08T07:13:00;5.25;;;4.85;;
11008;SDS011;5557;51.670;7.788;2023-09-08T07:15:27;8.25;;;4.93;;
11008;SDS011;5557;51.670;7.788;2023-09-08T07:17:54;4.47;;;4.07;;
11008;SDS011;5557;51.670;7.788;2023-09-08T07:20:25;7.03;;;4.60;;
11008;SDS011;5557;51.670;7.788;2023-09-08T07:22:53;6.38;;;4.85;;
11008;SDS011;5557;51.670;7.788;2023-09-08T07:25:23;5.18;;;4.72;;
11008;SDS011;5557;51.670;7.788;2023-09-08T07:27:53;6.10;;;4.28;;
11008;SDS011;5557;51.670;7.788;2023-09-08T07:30:20;11.95;;;4.55;;
11008;SDS011;5557;51.670;7.788;2023-09-08T07:32:48;5.13;;;4.10;;
11008;SDS011;5557;51.670;7.788;2023-09-08T07:35:15;3.67;;;3.50;;
11008;SDS011;5557;51.670;7.788;2023-09-08T07:37:43;4.40;;;4.05;;
11008;SDS011;5557;51.670;7.788;2023-09-08T07:40:10;4.40;;;4.18;;
11008;SDS011;5557;51.670;7.788;2023-09-08T07:42:38;3.78;;;3.47;;
11008;SDS011;5557;51.670;7.788;2023-09-08T07:45:05;11.10;;;3.80;;
11008;SDS011;5557;51.670;7.788;2023-09-08T07:47:33;6.32;;;3.90;;
11008;SDS011;5557;51.670;7.788;2023-09-08T07:52:46;14.25;;;4.35;;
11008;SDS011;5557;51.670;7.788;2023-09-08T07:55:17;3.78;;;3.33;;
11008;SDS011;5557;51.670;7.788;2023-09-08T07:57:45;2.80;;;2.63;;
11008;SDS011;5557;51.670;7.788;2023-09-08T08:00:13;3.67;;;3.17;;
11008;SDS011;5557;51.670;7.788;2023-09-08T08:02:48;4.78;;;3.22;;
11008;SDS011;5557;51.670;7.788;2023-09-08T08:05:17;8.50;;;2.85;;
11008;SDS011;5557;51.670;7.788;2023-09-08T08:07:45;3.67;;;3.40;;
11008;SDS011;5557;51.670;7.788;2023-09-08T08:10:14;4.25;;;3.17;;
11008;SDS011;5557;51.670;7.788;2023-09-08T08:12:44;3.38;;;3.17;;
11008;SDS011;5557;51.670;7.788;2023-09-08T08:15:11;5.70;;;3.30;;
11008;SDS011;5557;51.670;7.788;2023-09-08T08:17:39;4.32;;;3.72;;
11008;SDS011;5557;51.670;7.788;2023-09-08T08:20:07;4.07;;;3.55;;
11008;SDS011;5557;51.670;7.788;2023-09-08T08:22:37;4.30;;;3.63;;
11008;SDS011;5557;51.670;7.788;2023-09-08T08:25:05;4.60;;;2.45;;
11008;SDS011;5557;51.670;7.788;2023-09-08T08:27:32;6.53;;;3.00;;
11008;SDS011;5557;51.670;7.788;2023-09-08T08:30:00;2.72;;;2.63;;
11008;SDS011;5557;51.670;7.788;2023-09-08T08:32:28;3.22;;;3.13;;
11008;SDS011;5557;51.670;7.788;2023-09-08T08:34:55;3.00;;;2.58;;
11008;SDS011;5557;51.670;7.788;2023-09-08T08:37:23;3.10;;;2.90;;
11008;SDS011;5557;51.670;7.788;2023-09-08T08:39:52;12.73;;;2.50;;
11008;SDS011;5557;51.670;7.788;2023-09-08T08:42:20;10.07;;;3.03;;
11008;SDS011;5557;51.670;7.788;2023-09-08T08:44:49;2.50;;;2.40;;
11008;SDS011;5557;51.670;7.788;2023-09-08T08:47:16;4.45;;;2.78;;
11008;SDS011;5557;51.670;7.788;2023-09-08T08:49:45;2.30;;;2.20;;
11008;SDS011;5557;51.670;7.788;2023-09-08T08:52:14;2.65;;;2.38;;
11008;SDS011;5557;51.670;7.788;2023-09-08T08:54:44;3.53;;;2.28;;
11008;SDS011;5557;51.670;7.788;2023-09-08T08:57:12;4.43;;;2.95;;
11008;SDS011;5557;51.670;7.788;2023-09-08T08:59:40;4.03;;;2.72;;
11008;SDS011;5557;51.670;7.788;2023-09-08T09:02:13;2.97;;;2.78;;
11008;SDS011;5557;51.670;7.788;2023-09-08T09:04:41;2.70;;;2.17;;
11008;SDS011;5557;51.670;7.788;2023-09-08T09:07:11;3.17;;;2.88;;
11008;SDS011;5557;51.670;7.788;2023-09-08T09:09:38;4.25;;;2.65;;
11008;SDS011;5557;51.670;7.788;2023-09-08T09:12:08;2.88;;;2.67;;
11008;SDS011;5557;51.670;7.788;2023-09-08T09:14:35;4.47;;;2.30;;
11008;SDS011;5557;51.670;7.788;2023-09-08T09:17:02;2.83;;;2.47;;
11008;SDS011;5557;51.670;7.788;2023-09-08T09:19:31;2.50;;;2.40;;
11008;SDS011;5557;51.670;7.788;2023-09-08T09:22:02;2.60;;;2.50;;
11008;SDS011;5557;51.670;7.788;2023-09-08T09:24:36;4.00;;;2.40;;
11008;SDS011;5557;51.670;7.788;2023-09-08T09:27:41;2.95;;;2.75;;
11008;SDS011;5557;51.670;7.788;2023-09-08T09:30:11;4.18;;;2.42;;
11008;SDS011;5557;51.670;7.788;2023-09-08T09:32:39;5.80;;;2.55;;
11008;SDS011;5557;51.670;7.788;2023-09-08T09:35:07;4.60;;;3.00;;
11008;SDS011;5557;51.670;7.788;2023-09-08T09:37:34;5.90;;;2.55;;
11008;SDS011;5557;51.670;7.788;2023-09-08T09:40:02;3.22;;;2.42;;
11008;SDS011;5557;51.670;7.788;2023-09-08T09:42:34;3.17;;;2.63;;
11008;SDS011;5557;51.670;7.788;2023-09-08T09:45:03;3.10;;;2.85;;
11008;SDS011;5557;51.670;7.788;2023-09-08T09:47:31;2.70;;;2.53;;
11008;SDS011;5557;51.670;7.788;2023-09-08T09:49:58;8.65;;;2.60;;
11008;SDS011;5557;51.670;7.788;2023-09-08T09:52:26;2.60;;;2.50;;
11008;SDS011;5557;51.670;7.788;2023-09-08T09:54:56;2.95;;;2.33;;
11008;SDS011;5557;51.670;7.788;2023-09-08T09:57:25;2.55;;;2.45;;
11008;SDS011;5557;51.670;7.788;2023-09-08T09:59:53;15.07;;;3.17;;
11008;SDS011;5557;51.670;7.788;2023-09-08T10:02:22;5.78;;;2.55;;
11008;SDS011;5557;51.670;7.788;2023-09-08T10:04:56;5.30;;;2.70;;
11008;SDS011;5557;51.670;7.788;2023-09-08T10:07:25;3.13;;;2.80;;
11008;SDS011;5557;51.670;7.788;2023-09-08T10:09:53;5.03;;;2.67;;
11008;SDS011;5557;51.670;7.788;2023-09-08T10:12:21;12.85;;;2.88;;
11008;SDS011;5557;51.670;7.788;2023-09-08T10:14:49;3.13;;;2.92;;
11008;SDS011;5557;51.670;7.788;2023-09-08T10:17:30;7.22;;;3.00;;
11008;SDS011;5557;51.670;7.788;2023-09-08T10:19:58;2.58;;;2.38;;
11008;SDS011;5557;51.670;7.788;2023-09-08T10:22:29;2.72;;;2.63;;
11008;SDS011;5557;51.670;7.788;2023-09-08T10:24:57;4.07;;;2.95;;
11008;SDS011;5557;51.670;7.788;2023-09-08T10:27:53;5.78;;;2.90;;
11008;SDS011;5557;51.670;7.788;2023-09-08T10:30:22;2.85;;;2.65;;
11008;SDS011;5557;51.670;7.788;2023-09-08T10:32:52;5.47;;;2.88;;
11008;SDS011;5557;51.670;7.788;2023-09-08T10:35:23;3.53;;;3.28;;
11008;SDS011;5557;51.670;7.788;2023-09-08T10:38:21;2.60;;;2.40;;
11008;SDS011;5557;51.670;7.788;2023-09-08T10:40:54;3.13;;;2.88;;
11008;SDS011;5557;51.670;7.788;2023-09-08T10:44:02;13.20;;;3.10;;
11008;SDS011;5557;51.670;7.788;2023-09-08T10:46:34;7.95;;;2.55;;
11008;SDS011;5557;51.670;7.788;2023-09-08T10:49:04;6.88;;;2.80;;
11008;SDS011;5557;51.670;7.788;2023-09-08T10:51:36;2.60;;;2.40;;
11008;SDS011;5557;51.670;7.788;2023-09-08T10:54:05;3.10;;;2.75;;
11008;SDS011;5557;51.670;7.788;2023-09-08T10:56:48;2.53;;;2.33;;
11008;SDS011;5557;51.670;7.788;2023-09-08T11:02:43;5.82;;;2.92;;
11008;SDS011;5557;51.670;7.788;2023-09-08T11:05:16;2.60;;;2.40;;
11008;SDS011;5557;51.670;7.788;2023-09-08T11:07:43;2.88;;;2.67;;
11008;SDS011;5557;51.670;7.788;2023-09-08T11:10:14;2.17;;;2.08;;
11008;SDS011;5557;51.670;7.788;2023-09-08T11:12:42;4.80;;;2.55;;
11008;SDS011;5557;51.670;7.788;2023-09-08T11:15:09;3.65;;;2.53;;
11008;SDS011;5557;51.670;7.788;2023-09-08T11:17:37;2.45;;;2.25;;
11008;SDS011;5557;51.670;7.788;2023-09-08T11:20:09;2.70;;;2.60;;
11008;SDS011;5557;51.670;7.788;2023-09-08T11:22:42;2.85;;;2.10;;
11008;SDS011;5557;51.670;7.788;2023-09-08T11:25:17;3.00;;;2.72;;
11008;SDS011;5557;51.670;7.788;2023-09-08T11:28:03;2.53;;;2.17;;
11008;SDS011;5557;51.670;7.788;2023-09-08T11:30:33;3.83;;;2.45;;
11008;SDS011;5557;51.670;7.788;2023-09-08T11:33:01;4.70;;;2.70;;
11008;SDS011;5557;51.670;7.788;2023-09-08T11:35:28;2.50;;;2.40;;
11008;SDS011;5557;51.670;7.788;2023-09-08T11:37:59;2.42;;;2.33;;
11008;SDS011;5557;51.670;7.788;2023-09-08T11:40:27;3.00;;;2.80;;
11008;SDS011;5557;51.670;7.788;2023-09-08T11:42:54;2.22;;;2.13;;
11008;SDS011;5557;51.670;7.788;2023-09-08T11:45:23;2.80;;;2.50;;
11008;SDS011;5557;51.670;7.788;2023-09-08T11:47:52;2.90;;;2.70;;
11008;SDS011;5557;51.670;7.788;2023-09-08T11:50:20;4.68;;;2.85;;
11008;SDS011;5557;51.670;7.788;2023-09-08T11:52:48;10.25;;;2.60;;
11008;SDS011;5557;51.670;7.788;2023-09-08T11:55:17;3.15;;;2.45;;
11008;SDS011;5557;51.670;7.788;2023-09-08T11:57:46;4.35;;;2.50;;
11008;SDS011;5557;51.670;7.788;2023-09-08T12:00:15;2.17;;;2.08;;
11008;SDS011;5557;51.670;7.788;2023-09-08T12:02:44;2.85;;;2.58;;
11008;SDS011;5557;51.670;7.788;2023-09-08T12:05:12;7.28;;;2.03;;
11008;SDS011;5557;51.670;7.788;2023-09-08T12:07:47;7.53;;;2.38;;
11008;SDS011;5557;51.670;7.788;2023-09-08T12:10:14;4.38;;;2.08;;
11008;SDS011;5557;51.670;7.788;2023-09-08T12:12:53;3.67;;;2.70;;
11008;SDS011;5557;51.670;7.788;2023-09-08T12:15:33;6.65;;;2.45;;
11008;SDS011;5557;51.670;7.788;2023-09-08T12:18:08;3.72;;;2.72;;
11008;SDS011;5557;51.670;7.788;2023-09-08T12:20:37;4.70;;;2.72;;
11008;SDS011;5557;51.670;7.788;2023-09-08T12:23:19;3.10;;;2.65;;
11008;SDS011;5557;51.670;7.788;2023-09-08T12:25:50;15.00;;;2.65;;
11008;SDS011;5557;51.670;7.788;2023-09-08T12:28:19;4.03;;;2.53;;
11008;SDS011;5557;51.670;7.788;2023-09-08T12:30:57;3.28;;;2.63;;
11008;SDS011;5557;51.670;7.788;2023-09-08T12:33:28;2.83;;;2.55;;
11008;SDS011;5557;51.670;7.788;2023-09-08T12:35:56;3.67;;;3.20;;
11008;SDS011;5557;51.670;7.788;2023-09-08T12:38:23;3.22;;;3.03;;
11008;SDS011;5557;51.670;7.788;2023-09-08T12:41:11;3.28;;;3.17;;
11008;SDS011;5557;51.670;7.788;2023-09-08T12:43:38;5.73;;;2.90;;
11008;SDS011;5557;51.670;7.788;2023-09-08T12:46:05;3.15;;;2.95;;
11008;SDS011;5557;51.670;7.788;2023-09-08T12:48:32;3.70;;;3.40;;
11008;SDS011;5557;51.670;7.788;2023-09-08T12:51:00;3.70;;;2.77;;
11008;SDS011;5557;51.670;7.788;2023-09-08T12:53:27;3.70;;;3.03;;
11008;SDS011;5557;51.670;7.788;2023-09-08T12:55:59;12.83;;;3.77;;
11008;SDS011;5557;51.670;7.788;2023-09-08T12:58:26;4.90;;;3.20;;
11008;SDS011;5557;51.670;7.788;2023-09-08T13:00:57;3.30;;;3.00;;
11008;SDS011;5557;51.670;7.788;2023-09-08T13:03:24;9.10;;;3.47;;
11008;SDS011;5557;51.670;7.788;2023-09-08T13:05:56;3.40;;;3.17;;
11008;SDS011;5557;51.670;7.788;2023-09-08T13:08:23;7.37;;;3.20;;
11008;SDS011;5557;51.670;7.788;2023-09-08T13:10:53;5.53;;;3.30;;
11008;SDS011;5557;51.670;7.788;2023-09-08T13:13:21;3.33;;;2.90;;
11008;SDS011;5557;51.670;7.788;2023-09-08T13:15:48;5.40;;;3.00;;
11008;SDS011;5557;51.670;7.788;2023-09-08T13:18:16;3.83;;;3.10;;
11008;SDS011;5557;51.670;7.788;2023-09-08T13:20:43;3.60;;;3.40;;
11008;SDS011;5557;51.670;7.788;2023-09-08T13:23:10;3.00;;;2.90;;
11008;SDS011;5557;51.670;7.788;2023-09-08T13:25:37;3.70;;;3.40;;
11008;SDS011;5557;51.670;7.788;2023-09-08T13:28:06;3.10;;;2.90;;
11008;SDS011;5557;51.670;7.788;2023-09-08T13:30:33;3.40;;;3.20;;
11008;SDS011;5557;51.670;7.788;2023-09-08T13:33:00;5.57;;;3.17;;
11008;SDS011;5557;51.670;7.788;2023-09-08T13:35:28;5.37;;;3.30;;
11008;SDS011;5557;51.670;7.788;2023-09-08T13:37:55;3.20;;;3.00;;
11008;SDS011;5557;51.670;7.788;2023-09-08T13:40:23;2.73;;;2.63;;
11008;SDS011;5557;51.670;7.788;2023-09-08T13:42:50;3.50;;;3.30;;
11008;SDS011;5557;51.670;7.788;2023-09-08T13:45:17;2.90;;;2.70;;
11008;SDS011;5557;51.670;7.788;2023-09-08T13:47:45;4.07;;;2.97;;
11008;SDS011;5557;51.670;7.788;2023-09-08T13:50:13;3.50;;;3.30;;
11008;SDS011;5557;51.670;7.788;2023-09-08T13:52:42;3.20;;;3.00;;
11008;SDS011;5557;51.670;7.788;2023-09-08T13:55:13;4.43;;;3.00;;
11008;SDS011;5557;51.670;7.788;2023-09-08T13:57:42;4.27;;;2.90;;
11008;SDS011;5557;51.670;7.788;2023-09-08T14:00:14;9.70;;;2.50;;
11008;SDS011;5557;51.670;7.788;2023-09-08T14:02:43;3.47;;;3.13;;
11008;SDS011;5557;51.670;7.788;2023-09-08T14:05:13;3.13;;;2.93;;
11008;SDS011;5557;51.670;7.788;2023-09-08T14:07:45;4.40;;;2.80;;
11008;SDS011;5557;51.670;7.788;2023-09-08T14:10:21;3.20;;;3.00;;
11008;SDS011;5557;51.670;7.788;2023-09-08T14:12:53;14.83;;;3.30;;
11008;SDS011;5557;51.670;7.788;2023-09-08T14:15:21;5.00;;;3.00;;
11008;SDS011;5557;51.670;7.788;2023-09-08T14:17:48;2.90;;;2.80;;
11008;SDS011;5557;51.670;7.788;2023-09-08T14:20:15;3.37;;;2.67;;
11008;SDS011;5557;51.670;7.788;2023-09-08T14:22:43;8.70;;;2.77;;
11008;SDS011;5557;51.670;7.788;2023-09-08T14:25:10;3.00;;;2.80;;
11008;SDS011;5557;51.670;7.788;2023-09-08T14:27:37;2.70;;;2.60;;
11008;SDS011;5557;51.670;7.788;2023-09-08T14:30:04;2.73;;;2.60;;
11008;SDS011;5557;51.670;7.788;2023-09-08T14:32:32;3.87;;;2.60;;
11008;SDS011;5557;51.670;7.788;2023-09-08T14:35:00;3.20;;;3.10;;
11008;SDS011;5557;51.670;7.788;2023-09-08T14:37:26;2.60;;;2.40;;
11008;SDS011;5557;51.670;7.788;2023-09-08T14:39:54;5.10;;;3.30;;
11008;SDS011;5557;51.670;7.788;2023-09-08T14:42:21;2.60;;;2.50;;
11008;SDS011;5557;51.670;7.788;2023-09-08T14:44:48;2.93;;;2.83;;
11008;SDS011;5557;51.670;7.788;2023-09-08T14:47:18;2.93;;;2.73;;
11008;SDS011;5557;51.670;7.788;2023-09-08T14:49:45;5.33;;;2.97;;
11008;SDS011;5557;51.670;7.788;2023-09-08T14:52:12;9.43;;;3.00;;
11008;SDS011;5557;51.670;7.788;2023-09-08T14:54:40;3.10;;;2.30;;
11008;SDS011;5557;51.670;7.788;2023-09-08T14:57:07;2.60;;;2.50;;
11008;SDS011;5557;51.670;7.788;2023-09-08T14:59:35;2.70;;;2.60;;
11008;SDS011;5557;51.670;7.788;2023-09-08T15:02:02;3.50;;;3.10;;
11008;SDS011;5557;51.670;7.788;2023-09-08T15:04:30;3.30;;;2.57;;
11008;SDS011;5557;51.670;7.788;2023-09-08T15:06:59;2.97;;;2.70;;
11008;SDS011;5557;51.670;7.788;2023-09-08T15:09:26;2.83;;;2.63;;